Hlavní strana
METAR-TAF:

METAR-TAF

Letiště :

Kuvajt, Kuvajt

zeměpisná šířka: 29-13N, zeměpisná délka: 047-59E, výška: 55 m

Aktuální stav počasí

Zpráva byla vytvořena před 17 minutami, v 22:00 UTC
Jihojihozápadní vítr 6 kt
Teplota 23°C
Vlhkost vzduchu 31%
Tlak 1010 hPa
Viditelnost 10 km a více
Žádná oblačnost pod 1500 m, nevyskytují se cumulonimby.

METAR: OKBK 252200Z 21006KT CAVOK 23/05 Q1010 NOSIG

Čas: 01:17 (22:17 UTC)

Předpověď počasí

Zpráva byla vytvořena před 5 hodinami a 32 minutami, v 16:45 UTC
Předpověď platná od 25 v 18 UTC do 26 v 24 UTC
Jihojihovýchodní vítr 8 kt s nárazy do 18 kt
Viditelnost: 7000 m
Polojasno ve výšce 4000 ft
Oblačno až skoro zataženo ve výšce 8000 ft
Dočasný
od 25 v 18 UTC do 26 v 03 UTC
Viditelnost: 3000 m
Skoro jasno ve výšce 3000 ft, Cumulonimbus.

TAF: OKBK 251645Z 2518/2624 15008G18KT 7000 SCT040 BKN080 TEMPO 2518/2603 3000 -TSRA/BLDU FEW030CB

Stav a předpovědi počasí z více než 4 000 letišť (zprávy METAR a TAF).

Červené a žluté tečky na mapě představují dostupné meteorologické stanice.

Když kurzor umístíte na tečku, zobrazí se název stanice.

Pak kliknutím zobrazíte stav a předpověď počasí.

Chcete-li změnit mapu, kliknutím na zelené tlačítko se znaménkem +mapu přiblížíte, kliknutím na zelené tlačítko se znaménkem – mapu oddálíte a kliknutím na zelené šipky přejdete na sousední mapy.


METAR-TAF: